sensor_id;sensor_type;location;lat;lon;timestamp;P1;durP1;ratioP1;P2;durP2;ratioP2
24407;SDS011;12542;50.924;4.516;2023-04-03T00:01:04;10.82;;;6.57;;
24407;SDS011;12542;50.924;4.516;2023-04-03T00:03:31;8.70;;;6.68;;
24407;SDS011;12542;50.924;4.516;2023-04-03T00:05:57;11.43;;;6.25;;
24407;SDS011;12542;50.924;4.516;2023-04-03T00:08:23;11.60;;;7.22;;
24407;SDS011;12542;50.924;4.516;2023-04-03T00:10:48;10.98;;;7.00;;
24407;SDS011;12542;50.924;4.516;2023-04-03T00:13:15;10.07;;;7.00;;
24407;SDS011;12542;50.924;4.516;2023-04-03T00:15:41;9.63;;;6.55;;
24407;SDS011;12542;50.924;4.516;2023-04-03T00:18:08;12.70;;;6.65;;
24407;SDS011;12542;50.924;4.516;2023-04-03T00:20:34;9.73;;;6.55;;
24407;SDS011;12542;50.924;4.516;2023-04-03T00:23:00;12.02;;;7.05;;
24407;SDS011;12542;50.924;4.516;2023-04-03T00:25:26;10.75;;;7.22;;
24407;SDS011;12542;50.924;4.516;2023-04-03T00:27:52;10.25;;;7.53;;
24407;SDS011;12542;50.924;4.516;2023-04-03T00:30:19;12.38;;;6.72;;
24407;SDS011;12542;50.924;4.516;2023-04-03T00:32:49;10.50;;;6.90;;
24407;SDS011;12542;50.924;4.516;2023-04-03T00:35:17;13.15;;;8.70;;
24407;SDS011;12542;50.924;4.516;2023-04-03T00:37:44;13.80;;;7.82;;
24407;SDS011;12542;50.924;4.516;2023-04-03T00:40:10;10.90;;;7.45;;
24407;SDS011;12542;50.924;4.516;2023-04-03T00:42:37;13.60;;;8.82;;
24407;SDS011;12542;50.924;4.516;2023-04-03T00:47:33;13.00;;;7.45;;
24407;SDS011;12542;50.924;4.516;2023-04-03T00:49:59;16.65;;;8.02;;
24407;SDS011;12542;50.924;4.516;2023-04-03T00:52:28;11.35;;;7.45;;
24407;SDS011;12542;50.924;4.516;2023-04-03T00:55:00;12.98;;;7.68;;
24407;SDS011;12542;50.924;4.516;2023-04-03T00:57:29;9.38;;;5.97;;
24407;SDS011;12542;50.924;4.516;2023-04-03T00:59:57;13.82;;;6.63;;
24407;SDS011;12542;50.924;4.516;2023-04-03T01:02:29;8.95;;;6.55;;
24407;SDS011;12542;50.924;4.516;2023-04-03T01:04:55;12.68;;;7.13;;
24407;SDS011;12542;50.924;4.516;2023-04-03T01:07:26;11.15;;;6.25;;
24407;SDS011;12542;50.924;4.516;2023-04-03T01:09:58;10.85;;;6.28;;
24407;SDS011;12542;50.924;4.516;2023-04-03T01:12:26;10.20;;;6.35;;
24407;SDS011;12542;50.924;4.516;2023-04-03T01:14:53;11.55;;;5.82;;
24407;SDS011;12542;50.924;4.516;2023-04-03T01:22:42;9.60;;;5.45;;
24407;SDS011;12542;50.924;4.516;2023-04-03T01:25:28;9.50;;;5.57;;
24407;SDS011;12542;50.924;4.516;2023-04-03T01:27:54;8.52;;;5.28;;
24407;SDS011;12542;50.924;4.516;2023-04-03T01:30:21;12.00;;;5.90;;
24407;SDS011;12542;50.924;4.516;2023-04-03T01:32:53;10.30;;;6.50;;
24407;SDS011;12542;50.924;4.516;2023-04-03T01:35:20;14.13;;;6.43;;
24407;SDS011;12542;50.924;4.516;2023-04-03T01:37:46;10.65;;;5.68;;
24407;SDS011;12542;50.924;4.516;2023-04-03T01:40:12;11.15;;;6.72;;
24407;SDS011;12542;50.924;4.516;2023-04-03T01:42:37;8.88;;;5.90;;
24407;SDS011;12542;50.924;4.516;2023-04-03T01:45:03;14.27;;;5.90;;
24407;SDS011;12542;50.924;4.516;2023-04-03T01:47:30;10.90;;;5.53;;
24407;SDS011;12542;50.924;4.516;2023-04-03T01:49:55;10.00;;;5.68;;
24407;SDS011;12542;50.924;4.516;2023-04-03T01:52:21;9.50;;;5.80;;
24407;SDS011;12542;50.924;4.516;2023-04-03T01:54:47;10.48;;;5.60;;
24407;SDS011;12542;50.924;4.516;2023-04-03T01:57:13;11.35;;;6.30;;
24407;SDS011;12542;50.924;4.516;2023-04-03T01:59:40;9.50;;;7.00;;
24407;SDS011;12542;50.924;4.516;2023-04-03T02:02:06;11.98;;;6.85;;
24407;SDS011;12542;50.924;4.516;2023-04-03T02:04:32;12.10;;;6.57;;
24407;SDS011;12542;50.924;4.516;2023-04-03T02:06:57;13.40;;;6.00;;
24407;SDS011;12542;50.924;4.516;2023-04-03T02:09:23;10.40;;;6.57;;
24407;SDS011;12542;50.924;4.516;2023-04-03T02:11:49;11.40;;;6.43;;
24407;SDS011;12542;50.924;4.516;2023-04-03T02:14:15;12.48;;;6.90;;
24407;SDS011;12542;50.924;4.516;2023-04-03T02:16:40;10.90;;;5.82;;
24407;SDS011;12542;50.924;4.516;2023-04-03T02:19:06;10.10;;;5.22;;
24407;SDS011;12542;50.924;4.516;2023-04-03T02:21:32;9.65;;;5.93;;
24407;SDS011;12542;50.924;4.516;2023-04-03T02:23:57;9.85;;;5.90;;
24407;SDS011;12542;50.924;4.516;2023-04-03T02:26:23;11.75;;;6.47;;
24407;SDS011;12542;50.924;4.516;2023-04-03T02:28:49;12.38;;;6.18;;
24407;SDS011;12542;50.924;4.516;2023-04-03T02:31:15;10.38;;;5.18;;
24407;SDS011;12542;50.924;4.516;2023-04-03T02:33:41;11.63;;;6.10;;
24407;SDS011;12542;50.924;4.516;2023-04-03T02:36:07;13.45;;;5.88;;
24407;SDS011;12542;50.924;4.516;2023-04-03T02:38:33;8.30;;;5.47;;
24407;SDS011;12542;50.924;4.516;2023-04-03T02:41:03;10.35;;;5.60;;
24407;SDS011;12542;50.924;4.516;2023-04-03T02:46:00;8.18;;;4.60;;
24407;SDS011;12542;50.924;4.516;2023-04-03T02:48:25;10.65;;;5.82;;
24407;SDS011;12542;50.924;4.516;2023-04-03T02:50:52;12.15;;;5.70;;
24407;SDS011;12542;50.924;4.516;2023-04-03T02:53:20;11.93;;;5.63;;
24407;SDS011;12542;50.924;4.516;2023-04-03T02:55:46;8.35;;;6.07;;
24407;SDS011;12542;50.924;4.516;2023-04-03T02:58:12;9.30;;;5.05;;
24407;SDS011;12542;50.924;4.516;2023-04-03T03:00:37;11.13;;;5.38;;
24407;SDS011;12542;50.924;4.516;2023-04-03T03:03:03;6.32;;;4.60;;
24407;SDS011;12542;50.924;4.516;2023-04-03T03:05:29;14.85;;;5.95;;
24407;SDS011;12542;50.924;4.516;2023-04-03T03:07:55;13.75;;;6.55;;
24407;SDS011;12542;50.924;4.516;2023-04-03T03:10:24;12.00;;;5.78;;
24407;SDS011;12542;50.924;4.516;2023-04-03T03:12:50;9.00;;;5.70;;
24407;SDS011;12542;50.924;4.516;2023-04-03T03:15:16;11.63;;;5.82;;
24407;SDS011;12542;50.924;4.516;2023-04-03T03:17:44;11.80;;;6.38;;
24407;SDS011;12542;50.924;4.516;2023-04-03T03:20:10;7.28;;;5.00;;
24407;SDS011;12542;50.924;4.516;2023-04-03T03:22:37;13.80;;;6.97;;
24407;SDS011;12542;50.924;4.516;2023-04-03T03:25:03;14.18;;;5.90;;
24407;SDS011;12542;50.924;4.516;2023-04-03T03:27:29;12.35;;;5.80;;
24407;SDS011;12542;50.924;4.516;2023-04-03T03:29:57;11.43;;;5.70;;
24407;SDS011;12542;50.924;4.516;2023-04-03T03:32:22;15.90;;;5.97;;
24407;SDS011;12542;50.924;4.516;2023-04-03T03:34:48;7.47;;;5.50;;
24407;SDS011;12542;50.924;4.516;2023-04-03T03:37:14;10.90;;;5.78;;
24407;SDS011;12542;50.924;4.516;2023-04-03T03:39:39;8.05;;;5.35;;
24407;SDS011;12542;50.924;4.516;2023-04-03T03:42:05;15.75;;;7.43;;
24407;SDS011;12542;50.924;4.516;2023-04-03T03:44:31;11.30;;;5.97;;
24407;SDS011;12542;50.924;4.516;2023-04-03T03:46:56;10.38;;;5.60;;
24407;SDS011;12542;50.924;4.516;2023-04-03T03:49:24;9.77;;;6.53;;
24407;SDS011;12542;50.924;4.516;2023-04-03T03:51:50;9.55;;;5.80;;
24407;SDS011;12542;50.924;4.516;2023-04-03T03:54:16;12.55;;;5.93;;
24407;SDS011;12542;50.924;4.516;2023-04-03T03:56:42;8.80;;;5.57;;
24407;SDS011;12542;50.924;4.516;2023-04-03T03:59:08;9.48;;;6.32;;
24407;SDS011;12542;50.924;4.516;2023-04-03T04:01:36;9.73;;;6.07;;
24407;SDS011;12542;50.924;4.516;2023-04-03T04:04:01;9.48;;;6.07;;
24407;SDS011;12542;50.924;4.516;2023-04-03T04:06:27;11.38;;;6.85;;
24407;SDS011;12542;50.924;4.516;2023-04-03T04:08:53;11.85;;;6.82;;
24407;SDS011;12542;50.924;4.516;2023-04-03T04:11:19;15.30;;;6.70;;
24407;SDS011;12542;50.924;4.516;2023-04-03T04:13:45;14.80;;;7.28;;
24407;SDS011;12542;50.924;4.516;2023-04-03T04:16:11;10.75;;;5.57;;
24407;SDS011;12542;50.924;4.516;2023-04-03T04:18:36;9.93;;;6.22;;
24407;SDS011;12542;50.924;4.516;2023-04-03T04:21:02;10.32;;;6.13;;
24407;SDS011;12542;50.924;4.516;2023-04-03T04:23:28;13.88;;;6.70;;
24407;SDS011;12542;50.924;4.516;2023-04-03T04:25:53;12.15;;;6.38;;
24407;SDS011;12542;50.924;4.516;2023-04-03T04:28:19;10.20;;;5.88;;
24407;SDS011;12542;50.924;4.516;2023-04-03T04:30:45;11.70;;;5.88;;
24407;SDS011;12542;50.924;4.516;2023-04-03T04:33:11;11.80;;;6.10;;
24407;SDS011;12542;50.924;4.516;2023-04-03T04:35:36;11.95;;;6.57;;
24407;SDS011;12542;50.924;4.516;2023-04-03T04:38:04;11.40;;;6.22;;
24407;SDS011;12542;50.924;4.516;2023-04-03T04:40:30;10.00;;;5.97;;
24407;SDS011;12542;50.924;4.516;2023-04-03T04:42:56;12.25;;;6.40;;
24407;SDS011;12542;50.924;4.516;2023-04-03T04:45:22;8.65;;;5.65;;
24407;SDS011;12542;50.924;4.516;2023-04-03T04:47:47;13.20;;;6.70;;
24407;SDS011;12542;50.924;4.516;2023-04-03T04:50:14;12.07;;;6.78;;
24407;SDS011;12542;50.924;4.516;2023-04-03T04:52:41;9.32;;;6.30;;
24407;SDS011;12542;50.924;4.516;2023-04-03T04:55:07;12.40;;;6.30;;
24407;SDS011;12542;50.924;4.516;2023-04-03T04:57:32;11.68;;;6.15;;
24407;SDS011;12542;50.924;4.516;2023-04-03T04:59:59;11.07;;;6.05;;
24407;SDS011;12542;50.924;4.516;2023-04-03T05:02:25;11.40;;;6.57;;
24407;SDS011;12542;50.924;4.516;2023-04-03T05:04:53;11.23;;;6.22;;
24407;SDS011;12542;50.924;4.516;2023-04-03T05:07:19;14.70;;;6.75;;
24407;SDS011;12542;50.924;4.516;2023-04-03T05:09:44;10.15;;;6.57;;
24407;SDS011;12542;50.924;4.516;2023-04-03T05:12:10;12.65;;;6.82;;
24407;SDS011;12542;50.924;4.516;2023-04-03T05:14:36;13.35;;;7.32;;
24407;SDS011;12542;50.924;4.516;2023-04-03T05:17:01;16.90;;;7.97;;
24407;SDS011;12542;50.924;4.516;2023-04-03T05:19:27;13.68;;;8.10;;
24407;SDS011;12542;50.924;4.516;2023-04-03T05:21:53;15.80;;;7.53;;
24407;SDS011;12542;50.924;4.516;2023-04-03T05:24:19;19.48;;;8.15;;
24407;SDS011;12542;50.924;4.516;2023-04-03T05:26:45;14.10;;;7.55;;
24407;SDS011;12542;50.924;4.516;2023-04-03T05:29:11;11.38;;;6.95;;
24407;SDS011;12542;50.924;4.516;2023-04-03T05:31:37;16.40;;;8.27;;
24407;SDS011;12542;50.924;4.516;2023-04-03T05:34:02;11.43;;;7.45;;
24407;SDS011;12542;50.924;4.516;2023-04-03T05:36:28;14.25;;;8.25;;
24407;SDS011;12542;50.924;4.516;2023-04-03T05:38:54;13.65;;;7.60;;
24407;SDS011;12542;50.924;4.516;2023-04-03T05:41:21;13.63;;;8.25;;
24407;SDS011;12542;50.924;4.516;2023-04-03T05:43:47;14.15;;;8.57;;
24407;SDS011;12542;50.924;4.516;2023-04-03T05:46:13;11.57;;;8.45;;
24407;SDS011;12542;50.924;4.516;2023-04-03T05:48:41;11.70;;;8.32;;
24407;SDS011;12542;50.924;4.516;2023-04-03T05:51:09;15.15;;;8.85;;
24407;SDS011;12542;50.924;4.516;2023-04-03T05:53:40;13.90;;;8.00;;
24407;SDS011;12542;50.924;4.516;2023-04-03T05:56:10;11.35;;;7.55;;
24407;SDS011;12542;50.924;4.516;2023-04-03T05:58:36;13.68;;;7.00;;
24407;SDS011;12542;50.924;4.516;2023-04-03T06:01:01;8.27;;;5.90;;
24407;SDS011;12542;50.924;4.516;2023-04-03T06:03:27;8.85;;;5.85;;
24407;SDS011;12542;50.924;4.516;2023-04-03T06:05:53;10.18;;;6.00;;
24407;SDS011;12542;50.924;4.516;2023-04-03T06:08:18;11.38;;;6.03;;
24407;SDS011;12542;50.924;4.516;2023-04-03T06:10:44;9.18;;;5.38;;
24407;SDS011;12542;50.924;4.516;2023-04-03T06:13:10;8.40;;;4.95;;
24407;SDS011;12542;50.924;4.516;2023-04-03T06:15:37;15.90;;;5.47;;
24407;SDS011;12542;50.924;4.516;2023-04-03T06:18:03;11.93;;;5.70;;
24407;SDS011;12542;50.924;4.516;2023-04-03T06:20:29;8.80;;;5.57;;
24407;SDS011;12542;50.924;4.516;2023-04-03T06:22:57;14.13;;;5.88;;
24407;SDS011;12542;50.924;4.516;2023-04-03T06:25:23;11.93;;;5.57;;
24407;SDS011;12542;50.924;4.516;2023-04-03T06:27:49;11.10;;;5.85;;
24407;SDS011;12542;50.924;4.516;2023-04-03T06:30:15;7.40;;;5.30;;
24407;SDS011;12542;50.924;4.516;2023-04-03T06:32:40;8.98;;;5.70;;
24407;SDS011;12542;50.924;4.516;2023-04-03T06:35:06;9.23;;;5.30;;
24407;SDS011;12542;50.924;4.516;2023-04-03T06:37:33;9.07;;;5.20;;
24407;SDS011;12542;50.924;4.516;2023-04-03T06:39:59;7.57;;;5.03;;
24407;SDS011;12542;50.924;4.516;2023-04-03T06:42:28;8.68;;;5.18;;
24407;SDS011;12542;50.924;4.516;2023-04-03T06:44:53;10.45;;;5.93;;
24407;SDS011;12542;50.924;4.516;2023-04-03T06:47:21;9.07;;;5.55;;
24407;SDS011;12542;50.924;4.516;2023-04-03T06:49:47;9.70;;;5.22;;
24407;SDS011;12542;50.924;4.516;2023-04-03T06:52:13;8.02;;;4.97;;
24407;SDS011;12542;50.924;4.516;2023-04-03T06:54:39;9.93;;;5.07;;
24407;SDS011;12542;50.924;4.516;2023-04-03T06:57:07;11.05;;;5.20;;
24407;SDS011;12542;50.924;4.516;2023-04-03T06:59:34;6.70;;;5.10;;
24407;SDS011;12542;50.924;4.516;2023-04-03T07:02:00;8.90;;;5.60;;
24407;SDS011;12542;50.924;4.516;2023-04-03T07:04:26;8.80;;;5.22;;
24407;SDS011;12542;50.924;4.516;2023-04-03T07:06:51;12.40;;;5.70;;
24407;SDS011;12542;50.924;4.516;2023-04-03T07:09:17;7.78;;;4.95;;
24407;SDS011;12542;50.924;4.516;2023-04-03T07:11:44;11.20;;;5.35;;
24407;SDS011;12542;50.924;4.516;2023-04-03T07:14:10;13.48;;;5.72;;
24407;SDS011;12542;50.924;4.516;2023-04-03T07:16:35;8.20;;;5.47;;
24407;SDS011;12542;50.924;4.516;2023-04-03T07:19:02;9.38;;;5.43;;
24407;SDS011;12542;50.924;4.516;2023-04-03T07:21:28;8.63;;;5.45;;
24407;SDS011;12542;50.924;4.516;2023-04-03T07:23:54;10.10;;;5.40;;
24407;SDS011;12542;50.924;4.516;2023-04-03T07:26:20;10.35;;;6.07;;
24407;SDS011;12542;50.924;4.516;2023-04-03T07:28:47;12.38;;;6.25;;
24407;SDS011;12542;50.924;4.516;2023-04-03T07:31:14;11.98;;;5.82;;
24407;SDS011;12542;50.924;4.516;2023-04-03T07:33:42;11.50;;;5.65;;
24407;SDS011;12542;50.924;4.516;2023-04-03T07:36:09;8.57;;;5.47;;
24407;SDS011;12542;50.924;4.516;2023-04-03T07:38:36;11.27;;;6.43;;
24407;SDS011;12542;50.924;4.516;2023-04-03T07:41:02;8.95;;;5.63;;
24407;SDS011;12542;50.924;4.516;2023-04-03T07:43:29;8.25;;;4.95;;
24407;SDS011;12542;50.924;4.516;2023-04-03T07:45:55;8.30;;;5.70;;
24407;SDS011;12542;50.924;4.516;2023-04-03T07:48:22;10.35;;;5.55;;
24407;SDS011;12542;50.924;4.516;2023-04-03T07:50:51;16.00;;;5.72;;
24407;SDS011;12542;50.924;4.516;2023-04-03T07:53:17;12.18;;;5.63;;
24407;SDS011;12542;50.924;4.516;2023-04-03T07:55:46;9.23;;;4.80;;
24407;SDS011;12542;50.924;4.516;2023-04-03T07:58:14;9.05;;;5.10;;
24407;SDS011;12542;50.924;4.516;2023-04-03T08:00:42;10.13;;;4.63;;
24407;SDS011;12542;50.924;4.516;2023-04-03T08:03:09;8.98;;;5.00;;
24407;SDS011;12542;50.924;4.516;2023-04-03T08:05:36;12.55;;;4.40;;
24407;SDS011;12542;50.924;4.516;2023-04-03T08:08:03;12.27;;;5.10;;
24407;SDS011;12542;50.924;4.516;2023-04-03T08:10:31;9.30;;;4.78;;
24407;SDS011;12542;50.924;4.516;2023-04-03T08:12:58;10.45;;;5.50;;
24407;SDS011;12542;50.924;4.516;2023-04-03T08:15:23;9.35;;;4.90;;
24407;SDS011;12542;50.924;4.516;2023-04-03T08:17:49;9.55;;;4.63;;
24407;SDS011;12542;50.924;4.516;2023-04-03T08:20:15;9.63;;;5.13;;
24407;SDS011;12542;50.924;4.516;2023-04-03T08:22:41;10.25;;;4.72;;
24407;SDS011;12542;50.924;4.516;2023-04-03T08:25:07;8.93;;;4.70;;
24407;SDS011;12542;50.924;4.516;2023-04-03T08:27:33;8.10;;;4.30;;
24407;SDS011;12542;50.924;4.516;2023-04-03T08:29:59;7.25;;;4.10;;
24407;SDS011;12542;50.924;4.516;2023-04-03T08:32:25;8.48;;;4.32;;
24407;SDS011;12542;50.924;4.516;2023-04-03T08:34:51;10.80;;;4.82;;
24407;SDS011;12542;50.924;4.516;2023-04-03T08:37:16;8.60;;;3.67;;
24407;SDS011;12542;50.924;4.516;2023-04-03T08:39:43;7.82;;;4.30;;
24407;SDS011;12542;50.924;4.516;2023-04-03T08:45:01;6.75;;;4.10;;
24407;SDS011;12542;50.924;4.516;2023-04-03T08:47:38;5.45;;;3.42;;
24407;SDS011;12542;50.924;4.516;2023-04-03T08:50:39;11.07;;;3.80;;
24407;SDS011;12542;50.924;4.516;2023-04-03T08:53:14;6.15;;;3.58;;
24407;SDS011;12542;50.924;4.516;2023-04-03T08:55:43;7.53;;;4.15;;
24407;SDS011;12542;50.924;4.516;2023-04-03T09:00:50;6.95;;;3.75;;
24407;SDS011;12542;50.924;4.516;2023-04-03T09:03:16;6.07;;;3.40;;
24407;SDS011;12542;50.924;4.516;2023-04-03T09:10:47;7.22;;;3.15;;
24407;SDS011;12542;50.924;4.516;2023-04-03T09:13:23;6.47;;;3.17;;
24407;SDS011;12542;50.924;4.516;2023-04-03T09:16:04;6.97;;;3.08;;
24407;SDS011;12542;50.924;4.516;2023-04-03T09:18:47;6.10;;;2.47;;
24407;SDS011;12542;50.924;4.516;2023-04-03T09:21:25;9.50;;;2.55;;
24407;SDS011;12542;50.924;4.516;2023-04-03T09:24:00;6.15;;;2.78;;
24407;SDS011;12542;50.924;4.516;2023-04-03T09:29:24;4.15;;;2.03;;
24407;SDS011;12542;50.924;4.516;2023-04-03T09:31:59;6.90;;;2.05;;
24407;SDS011;12542;50.924;4.516;2023-04-03T09:34:28;6.97;;;2.10;;
24407;SDS011;12542;50.924;4.516;2023-04-03T09:37:00;7.05;;;2.42;;
24407;SDS011;12542;50.924;4.516;2023-04-03T09:39:49;7.28;;;2.90;;
24407;SDS011;12542;50.924;4.516;2023-04-03T09:50:10;4.72;;;2.10;;
24407;SDS011;12542;50.924;4.516;2023-04-03T09:52:46;5.93;;;2.22;;
24407;SDS011;12542;50.924;4.516;2023-04-03T09:57:40;6.78;;;2.60;;
24407;SDS011;12542;50.924;4.516;2023-04-03T10:00:10;6.25;;;2.05;;
24407;SDS011;12542;50.924;4.516;2023-04-03T10:02:56;5.00;;;2.00;;
24407;SDS011;12542;50.924;4.516;2023-04-03T10:05:36;6.68;;;1.98;;
24407;SDS011;12542;50.924;4.516;2023-04-03T10:08:07;6.57;;;2.20;;
24407;SDS011;12542;50.924;4.516;2023-04-03T10:10:33;5.57;;;2.33;;
24407;SDS011;12542;50.924;4.516;2023-04-03T10:15:34;9.13;;;2.70;;
24407;SDS011;12542;50.924;4.516;2023-04-03T10:18:08;7.00;;;2.38;;
24407;SDS011;12542;50.924;4.516;2023-04-03T10:20:58;4.88;;;2.20;;
24407;SDS011;12542;50.924;4.516;2023-04-03T10:26:29;9.50;;;2.53;;
24407;SDS011;12542;50.924;4.516;2023-04-03T10:34:35;5.82;;;1.77;;
24407;SDS011;12542;50.924;4.516;2023-04-03T10:42:14;6.13;;;1.92;;
24407;SDS011;12542;50.924;4.516;2023-04-03T10:58:26;5.88;;;2.08;;
24407;SDS011;12542;50.924;4.516;2023-04-03T11:01:01;5.63;;;1.63;;
24407;SDS011;12542;50.924;4.516;2023-04-03T11:03:36;4.40;;;1.52;;
24407;SDS011;12542;50.924;4.516;2023-04-03T11:06:07;5.43;;;1.30;;
24407;SDS011;12542;50.924;4.516;2023-04-03T11:08:45;4.80;;;1.60;;
24407;SDS011;12542;50.924;4.516;2023-04-03T11:11:41;5.22;;;1.35;;
24407;SDS011;12542;50.924;4.516;2023-04-03T11:14:13;3.33;;;1.08;;
24407;SDS011;12542;50.924;4.516;2023-04-03T11:16:47;5.88;;;1.60;;
24407;SDS011;12542;50.924;4.516;2023-04-03T11:19:22;2.78;;;1.20;;
24407;SDS011;12542;50.924;4.516;2023-04-03T11:22:45;4.22;;;1.83;;
24407;SDS011;12542;50.924;4.516;2023-04-03T11:25:38;6.00;;;1.75;;
24407;SDS011;12542;50.924;4.516;2023-04-03T11:27:49;5.20;;;1.80;;
24407;SDS011;12542;50.924;4.516;2023-04-03T11:30:21;8.55;;;1.55;;
24407;SDS011;12542;50.924;4.516;2023-04-03T11:36:01;3.30;;;1.42;;
24407;SDS011;12542;50.924;4.516;2023-04-03T11:38:47;6.00;;;2.00;;
24407;SDS011;12542;50.924;4.516;2023-04-03T11:41:16;4.15;;;1.30;;
24407;SDS011;12542;50.924;4.516;2023-04-03T11:46:55;4.68;;;1.60;;
24407;SDS011;12542;50.924;4.516;2023-04-03T12:16:20;6.40;;;1.30;;
24407;SDS011;12542;50.924;4.516;2023-04-03T12:21:14;4.97;;;1.15;;
24407;SDS011;12542;50.924;4.516;2023-04-03T12:23:57;3.15;;;1.55;;
24407;SDS011;12542;50.924;4.516;2023-04-03T12:27:03;4.07;;;1.35;;
24407;SDS011;12542;50.924;4.516;2023-04-03T12:37:51;7.10;;;1.40;;
24407;SDS011;12542;50.924;4.516;2023-04-03T12:51:13;6.65;;;1.98;;
24407;SDS011;12542;50.924;4.516;2023-04-03T12:53:49;1.38;;;0.70;;
24407;SDS011;12542;50.924;4.516;2023-04-03T12:56:27;2.85;;;1.00;;
24407;SDS011;12542;50.924;4.516;2023-04-03T12:58:56;3.55;;;1.30;;
24407;SDS011;12542;50.924;4.516;2023-04-03T13:01:41;2.83;;;0.90;;
24407;SDS011;12542;50.924;4.516;2023-04-03T13:04:09;1.77;;;0.90;;
24407;SDS011;12542;50.924;4.516;2023-04-03T13:06:41;4.78;;;1.40;;
24407;SDS011;12542;50.924;4.516;2023-04-03T13:09:21;12.55;;;1.80;;
24407;SDS011;12542;50.924;4.516;2023-04-03T13:11:47;2.30;;;0.98;;
24407;SDS011;12542;50.924;4.516;2023-04-03T13:14:21;4.03;;;1.33;;
24407;SDS011;12542;50.924;4.516;2023-04-03T13:17:12;3.05;;;1.23;;
24407;SDS011;12542;50.924;4.516;2023-04-03T13:19:40;2.58;;;0.88;;
24407;SDS011;12542;50.924;4.516;2023-04-03T13:24:55;2.80;;;1.20;;
24407;SDS011;12542;50.924;4.516;2023-04-03T13:27:24;3.20;;;1.15;;
24407;SDS011;12542;50.924;4.516;2023-04-03T13:29:54;3.22;;;1.50;;
24407;SDS011;12542;50.924;4.516;2023-04-03T13:32:24;4.53;;;1.70;;
24407;SDS011;12542;50.924;4.516;2023-04-03T13:34:53;3.55;;;1.33;;
24407;SDS011;12542;50.924;4.516;2023-04-03T13:37:20;3.45;;;1.20;;
24407;SDS011;12542;50.924;4.516;2023-04-03T13:39:59;2.72;;;1.10;;
24407;SDS011;12542;50.924;4.516;2023-04-03T13:42:37;3.97;;;1.50;;
24407;SDS011;12542;50.924;4.516;2023-04-03T13:45:25;3.40;;;1.17;;
24407;SDS011;12542;50.924;4.516;2023-04-03T13:48:17;3.40;;;1.55;;
24407;SDS011;12542;50.924;4.516;2023-04-03T13:53:26;5.25;;;1.20;;
24407;SDS011;12542;50.924;4.516;2023-04-03T13:55:57;3.45;;;1.50;;
24407;SDS011;12542;50.924;4.516;2023-04-03T13:58:28;2.25;;;0.90;;
24407;SDS011;12542;50.924;4.516;2023-04-03T14:03:46;2.25;;;1.20;;
24407;SDS011;12542;50.924;4.516;2023-04-03T14:06:14;3.10;;;1.30;;
24407;SDS011;12542;50.924;4.516;2023-04-03T14:08:41;4.45;;;1.10;;
24407;SDS011;12542;50.924;4.516;2023-04-03T14:11:16;2.45;;;1.45;;
24407;SDS011;12542;50.924;4.516;2023-04-03T14:13:48;4.00;;;1.17;;
24407;SDS011;12542;50.924;4.516;2023-04-03T14:16:15;3.63;;;1.48;;
24407;SDS011;12542;50.924;4.516;2023-04-03T14:18:47;2.13;;;1.00;;
24407;SDS011;12542;50.924;4.516;2023-04-03T14:21:17;2.80;;;1.20;;
24407;SDS011;12542;50.924;4.516;2023-04-03T14:23:44;5.43;;;1.30;;
24407;SDS011;12542;50.924;4.516;2023-04-03T14:26:14;5.15;;;1.05;;
24407;SDS011;12542;50.924;4.516;2023-04-03T14:28:49;3.75;;;2.00;;
24407;SDS011;12542;50.924;4.516;2023-04-03T14:31:16;4.30;;;1.27;;
24407;SDS011;12542;50.924;4.516;2023-04-03T14:33:43;1.45;;;0.90;;
24407;SDS011;12542;50.924;4.516;2023-04-03T14:36:16;3.75;;;1.00;;
24407;SDS011;12542;50.924;4.516;2023-04-03T14:38:45;2.00;;;0.90;;
24407;SDS011;12542;50.924;4.516;2023-04-03T14:41:12;3.92;;;1.27;;
24407;SDS011;12542;50.924;4.516;2023-04-03T14:43:39;5.18;;;1.30;;
24407;SDS011;12542;50.924;4.516;2023-04-03T14:46:09;4.25;;;1.10;;
24407;SDS011;12542;50.924;4.516;2023-04-03T14:48:39;3.50;;;1.33;;
24407;SDS011;12542;50.924;4.516;2023-04-03T14:51:05;3.08;;;1.33;;
24407;SDS011;12542;50.924;4.516;2023-04-03T14:53:31;2.28;;;1.02;;
24407;SDS011;12542;50.924;4.516;2023-04-03T14:55:57;2.65;;;1.15;;
24407;SDS011;12542;50.924;4.516;2023-04-03T14:58:23;2.72;;;0.75;;
24407;SDS011;12542;50.924;4.516;2023-04-03T15:00:49;2.42;;;1.00;;
24407;SDS011;12542;50.924;4.516;2023-04-03T15:03:19;2.22;;;1.17;;
24407;SDS011;12542;50.924;4.516;2023-04-03T15:05:46;3.45;;;0.90;;
24407;SDS011;12542;50.924;4.516;2023-04-03T15:08:17;3.03;;;1.02;;
24407;SDS011;12542;50.924;4.516;2023-04-03T15:10:43;1.40;;;0.80;;
24407;SDS011;12542;50.924;4.516;2023-04-03T15:13:10;4.10;;;1.00;;
24407;SDS011;12542;50.924;4.516;2023-04-03T15:15:37;1.77;;;0.98;;
24407;SDS011;12542;50.924;4.516;2023-04-03T15:18:03;3.38;;;1.20;;
24407;SDS011;12542;50.924;4.516;2023-04-03T15:20:29;3.45;;;1.13;;
24407;SDS011;12542;50.924;4.516;2023-04-03T15:22:58;3.80;;;1.52;;
24407;SDS011;12542;50.924;4.516;2023-04-03T15:25:27;2.90;;;1.33;;
24407;SDS011;12542;50.924;4.516;2023-04-03T15:27:54;1.90;;;0.95;;
24407;SDS011;12542;50.924;4.516;2023-04-03T15:30:21;5.32;;;1.30;;
24407;SDS011;12542;50.924;4.516;2023-04-03T15:32:46;3.53;;;1.30;;
24407;SDS011;12542;50.924;4.516;2023-04-03T15:35:13;6.32;;;1.38;;
24407;SDS011;12542;50.924;4.516;2023-04-03T15:37:39;3.47;;;1.45;;
24407;SDS011;12542;50.924;4.516;2023-04-03T15:40:05;2.28;;;1.20;;
24407;SDS011;12542;50.924;4.516;2023-04-03T15:42:32;3.60;;;1.40;;
24407;SDS011;12542;50.924;4.516;2023-04-03T15:44:58;5.07;;;1.35;;
24407;SDS011;12542;50.924;4.516;2023-04-03T15:47:24;3.40;;;1.70;;
24407;SDS011;12542;50.924;4.516;2023-04-03T15:49:51;2.92;;;1.23;;
24407;SDS011;12542;50.924;4.516;2023-04-03T15:52:18;3.90;;;1.30;;
24407;SDS011;12542;50.924;4.516;2023-04-03T15:54:48;3.03;;;1.10;;
24407;SDS011;12542;50.924;4.516;2023-04-03T15:57:14;4.35;;;1.27;;
24407;SDS011;12542;50.924;4.516;2023-04-03T15:59:40;3.75;;;1.33;;
24407;SDS011;12542;50.924;4.516;2023-04-03T16:02:06;7.13;;;1.40;;
24407;SDS011;12542;50.924;4.516;2023-04-03T16:04:35;4.55;;;1.52;;
24407;SDS011;12542;50.924;4.516;2023-04-03T16:07:04;8.57;;;1.20;;
24407;SDS011;12542;50.924;4.516;2023-04-03T16:09:30;5.90;;;1.40;;
24407;SDS011;12542;50.924;4.516;2023-04-03T16:11:57;3.78;;;1.45;;
24407;SDS011;12542;50.924;4.516;2023-04-03T16:14:23;10.55;;;1.95;;
24407;SDS011;12542;50.924;4.516;2023-04-03T16:16:49;4.13;;;1.65;;
24407;SDS011;12542;50.924;4.516;2023-04-03T16:19:15;3.85;;;1.40;;
24407;SDS011;12542;50.924;4.516;2023-04-03T16:21:40;3.72;;;1.60;;
24407;SDS011;12542;50.924;4.516;2023-04-03T16:24:06;6.00;;;1.50;;
24407;SDS011;12542;50.924;4.516;2023-04-03T16:26:32;3.78;;;1.75;;
24407;SDS011;12542;50.924;4.516;2023-04-03T16:28:58;7.50;;;1.50;;
24407;SDS011;12542;50.924;4.516;2023-04-03T16:31:24;4.82;;;1.65;;
24407;SDS011;12542;50.924;4.516;2023-04-03T16:33:51;3.70;;;1.45;;
24407;SDS011;12542;50.924;4.516;2023-04-03T16:36:17;4.13;;;1.55;;
24407;SDS011;12542;50.924;4.516;2023-04-03T16:38:43;5.63;;;1.65;;
24407;SDS011;12542;50.924;4.516;2023-04-03T16:41:08;5.22;;;1.65;;
24407;SDS011;12542;50.924;4.516;2023-04-03T16:43:34;6.45;;;1.55;;
24407;SDS011;12542;50.924;4.516;2023-04-03T16:46:02;2.58;;;1.05;;
24407;SDS011;12542;50.924;4.516;2023-04-03T16:48:28;4.22;;;1.60;;
24407;SDS011;12542;50.924;4.516;2023-04-03T16:50:55;5.05;;;1.25;;
24407;SDS011;12542;50.924;4.516;2023-04-03T16:53:22;7.93;;;1.38;;
24407;SDS011;12542;50.924;4.516;2023-04-03T16:55:48;3.40;;;1.20;;
24407;SDS011;12542;50.924;4.516;2023-04-03T16:58:15;5.47;;;1.35;;